<?xml version="1.0" encoding="utf-8"?>
<gpx xmlns:xsi="http://www.w3.org/2001/XMLSchema-instance" xmlns:xsd="http://www.w3.org/2001/XMLSchema" version="1.1" creator="Shapelink.com" xmlns="http://www.topografix.com/GPX/1/1" xmlns:gpxtpx="http://www.garmin.com/xmlschemas/TrackPointExtension/v1">
  <metadata>
    <name>Løping 5.33 km, 2012-08-02</name>
    <desc></desc>
    <author><name>Mikael Blom</name></author> 
    <time>2012-08-02T18:35:35Z</time>
  </metadata>
  <trk>
    <name>Løping 5.33 km, 2012-08-02</name>
    <trkseg>
      <trkpt lat="59.8982436" lon="17.6322992">
        <ele>30.4188</ele>
        <time>2012-08-02T18:35:35Z</time>
      </trkpt>
      <trkpt lat="59.8981409" lon="17.6321112">
        <ele>29.9381</ele>
        <time>2012-08-02T18:35:40Z</time>
      </trkpt>
      <trkpt lat="59.8980468" lon="17.6318725">
        <ele>30.4188</ele>
        <time>2012-08-02T18:35:45Z</time>
      </trkpt>
      <trkpt lat="59.8979992" lon="17.631657">
        <ele>31.3801</ele>
        <time>2012-08-02T18:35:49Z</time>
      </trkpt>
      <trkpt lat="59.897968" lon="17.6314412">
        <ele>32.8223</ele>
        <time>2012-08-02T18:35:53Z</time>
      </trkpt>
      <trkpt lat="59.8979747" lon="17.6313916">
        <ele>33.7834</ele>
        <time>2012-08-02T18:35:54Z</time>
      </trkpt>
      <trkpt lat="59.8979336" lon="17.6310716">
        <ele>36.1868</ele>
        <time>2012-08-02T18:36:00Z</time>
      </trkpt>
      <trkpt lat="59.8978773" lon="17.6308259">
        <ele>35.7061</ele>
        <time>2012-08-02T18:36:05Z</time>
      </trkpt>
      <trkpt lat="59.8978162" lon="17.6306075">
        <ele>34.7449</ele>
        <time>2012-08-02T18:36:10Z</time>
      </trkpt>
      <trkpt lat="59.8977437" lon="17.6303831">
        <ele>34.2642</ele>
        <time>2012-08-02T18:36:15Z</time>
      </trkpt>
      <trkpt lat="59.8976685" lon="17.6301918">
        <ele>33.7834</ele>
        <time>2012-08-02T18:36:19Z</time>
      </trkpt>
      <trkpt lat="59.8975891" lon="17.6299747">
        <ele>33.7834</ele>
        <time>2012-08-02T18:36:24Z</time>
      </trkpt>
      <trkpt lat="59.8975168" lon="17.6297013">
        <ele>34.2642</ele>
        <time>2012-08-02T18:36:30Z</time>
      </trkpt>
      <trkpt lat="59.8974532" lon="17.629549">
        <ele>35.2255</ele>
        <time>2012-08-02T18:36:34Z</time>
      </trkpt>
      <trkpt lat="59.8973648" lon="17.6294056">
        <ele>34.7449</ele>
        <time>2012-08-02T18:36:38Z</time>
      </trkpt>
      <trkpt lat="59.897248" lon="17.6291397">
        <ele>35.7061</ele>
        <time>2012-08-02T18:36:45Z</time>
      </trkpt>
      <trkpt lat="59.8971458" lon="17.6289338">
        <ele>37.6287</ele>
        <time>2012-08-02T18:36:51Z</time>
      </trkpt>
      <trkpt lat="59.8970423" lon="17.6287339">
        <ele>40.0321</ele>
        <time>2012-08-02T18:36:57Z</time>
      </trkpt>
      <trkpt lat="59.8969453" lon="17.6285599">
        <ele>40.5128</ele>
        <time>2012-08-02T18:37:03Z</time>
      </trkpt>
      <trkpt lat="59.8968427" lon="17.6284374">
        <ele>41.474</ele>
        <time>2012-08-02T18:37:08Z</time>
      </trkpt>
      <trkpt lat="59.8967026" lon="17.6282173">
        <ele>41.9547</ele>
        <time>2012-08-02T18:37:15Z</time>
      </trkpt>
      <trkpt lat="59.8966635" lon="17.6281707">
        <ele>41.9547</ele>
        <time>2012-08-02T18:37:17Z</time>
      </trkpt>
      <trkpt lat="59.896559" lon="17.6281043">
        <ele>40.0321</ele>
        <time>2012-08-02T18:37:21Z</time>
      </trkpt>
      <trkpt lat="59.8964077" lon="17.6279704">
        <ele>37.6287</ele>
        <time>2012-08-02T18:37:28Z</time>
      </trkpt>
      <trkpt lat="59.8962793" lon="17.6278869">
        <ele>36.6675</ele>
        <time>2012-08-02T18:37:33Z</time>
      </trkpt>
      <trkpt lat="59.8961607" lon="17.6277991">
        <ele>36.1868</ele>
        <time>2012-08-02T18:37:38Z</time>
      </trkpt>
      <trkpt lat="59.896018" lon="17.6276755">
        <ele>36.6675</ele>
        <time>2012-08-02T18:37:44Z</time>
      </trkpt>
      <trkpt lat="59.8959364" lon="17.6276085">
        <ele>35.2255</ele>
        <time>2012-08-02T18:37:48Z</time>
      </trkpt>
      <trkpt lat="59.8958292" lon="17.6275491">
        <ele>34.7449</ele>
        <time>2012-08-02T18:37:53Z</time>
      </trkpt>
      <trkpt lat="59.8957393" lon="17.627524">
        <ele>34.2642</ele>
        <time>2012-08-02T18:37:57Z</time>
      </trkpt>
      <trkpt lat="59.8956458" lon="17.6274936">
        <ele>33.3029</ele>
        <time>2012-08-02T18:38:01Z</time>
      </trkpt>
      <trkpt lat="59.895599" lon="17.6274792">
        <ele>33.7834</ele>
        <time>2012-08-02T18:38:03Z</time>
      </trkpt>
      <trkpt lat="59.8954376" lon="17.6274201">
        <ele>34.7449</ele>
        <time>2012-08-02T18:38:10Z</time>
      </trkpt>
      <trkpt lat="59.8953022" lon="17.6273399">
        <ele>36.6675</ele>
        <time>2012-08-02T18:38:16Z</time>
      </trkpt>
      <trkpt lat="59.8951392" lon="17.6272202">
        <ele>38.5901</ele>
        <time>2012-08-02T18:38:23Z</time>
      </trkpt>
      <trkpt lat="59.8950001" lon="17.6271637">
        <ele>38.1094</ele>
        <time>2012-08-02T18:38:29Z</time>
      </trkpt>
      <trkpt lat="59.8949041" lon="17.6271032">
        <ele>36.6675</ele>
        <time>2012-08-02T18:38:33Z</time>
      </trkpt>
      <trkpt lat="59.8947823" lon="17.6270461">
        <ele>36.1868</ele>
        <time>2012-08-02T18:38:38Z</time>
      </trkpt>
      <trkpt lat="59.8946428" lon="17.6269502">
        <ele>35.7061</ele>
        <time>2012-08-02T18:38:44Z</time>
      </trkpt>
      <trkpt lat="59.8945169" lon="17.6268126">
        <ele>35.2255</ele>
        <time>2012-08-02T18:38:50Z</time>
      </trkpt>
      <trkpt lat="59.894375" lon="17.6266803">
        <ele>36.6675</ele>
        <time>2012-08-02T18:38:56Z</time>
      </trkpt>
      <trkpt lat="59.8942373" lon="17.6264695">
        <ele>37.6287</ele>
        <time>2012-08-02T18:39:03Z</time>
      </trkpt>
      <trkpt lat="59.8941407" lon="17.6263024">
        <ele>37.1481</ele>
        <time>2012-08-02T18:39:08Z</time>
      </trkpt>
      <trkpt lat="59.8940021" lon="17.6260814">
        <ele>35.7061</ele>
        <time>2012-08-02T18:39:15Z</time>
      </trkpt>
      <trkpt lat="59.8938905" lon="17.6258422">
        <ele>35.7061</ele>
        <time>2012-08-02T18:39:21Z</time>
      </trkpt>
      <trkpt lat="59.8938276" lon="17.625626">
        <ele>35.2255</ele>
        <time>2012-08-02T18:39:26Z</time>
      </trkpt>
      <trkpt lat="59.8937738" lon="17.6254592">
        <ele>34.7449</ele>
        <time>2012-08-02T18:39:30Z</time>
      </trkpt>
      <trkpt lat="59.8937186" lon="17.6253014">
        <ele>34.7449</ele>
        <time>2012-08-02T18:39:34Z</time>
      </trkpt>
      <trkpt lat="59.8936706" lon="17.6250899">
        <ele>33.3029</ele>
        <time>2012-08-02T18:39:39Z</time>
      </trkpt>
      <trkpt lat="59.8936354" lon="17.624827">
        <ele>32.8223</ele>
        <time>2012-08-02T18:39:45Z</time>
      </trkpt>
      <trkpt lat="59.8936204" lon="17.624623">
        <ele>31.8607</ele>
        <time>2012-08-02T18:39:50Z</time>
      </trkpt>
      <trkpt lat="59.8935909" lon="17.6244078">
        <ele>31.3801</ele>
        <time>2012-08-02T18:39:55Z</time>
      </trkpt>
      <trkpt lat="59.8935727" lon="17.624329">
        <ele>30.8995</ele>
        <time>2012-08-02T18:39:57Z</time>
      </trkpt>
      <trkpt lat="59.8934839" lon="17.6241225">
        <ele>28.9769</ele>
        <time>2012-08-02T18:40:03Z</time>
      </trkpt>
      <trkpt lat="59.8934282" lon="17.6240002">
        <ele>27.0543</ele>
        <time>2012-08-02T18:40:07Z</time>
      </trkpt>
      <trkpt lat="59.8933131" lon="17.6237842">
        <ele>24.651</ele>
        <time>2012-08-02T18:40:14Z</time>
      </trkpt>
      <trkpt lat="59.8932012" lon="17.62358">
        <ele>23.209</ele>
        <time>2012-08-02T18:40:20Z</time>
      </trkpt>
      <trkpt lat="59.8931236" lon="17.6234744">
        <ele>24.651</ele>
        <time>2012-08-02T18:40:24Z</time>
      </trkpt>
      <trkpt lat="59.8930588" lon="17.6233789">
        <ele>25.1317</ele>
        <time>2012-08-02T18:40:29Z</time>
      </trkpt>
      <trkpt lat="59.8930076" lon="17.623279">
        <ele>25.1317</ele>
        <time>2012-08-02T18:40:33Z</time>
      </trkpt>
      <trkpt lat="59.8929314" lon="17.6231813">
        <ele>25.6123</ele>
        <time>2012-08-02T18:40:37Z</time>
      </trkpt>
      <trkpt lat="59.892849" lon="17.6230834">
        <ele>23.6896</ele>
        <time>2012-08-02T18:40:42Z</time>
      </trkpt>
      <trkpt lat="59.8928009" lon="17.623057">
        <ele>21.2864</ele>
        <time>2012-08-02T18:40:44Z</time>
      </trkpt>
      <trkpt lat="59.8926825" lon="17.6230767">
        <ele>20.8057</ele>
        <time>2012-08-02T18:40:50Z</time>
      </trkpt>
      <trkpt lat="59.8925872" lon="17.6231433">
        <ele>16.9604</ele>
        <time>2012-08-02T18:40:55Z</time>
      </trkpt>
      <trkpt lat="59.8924684" lon="17.6232116">
        <ele>12.1538</ele>
        <time>2012-08-02T18:41:00Z</time>
      </trkpt>
      <trkpt lat="59.8923888" lon="17.6233696">
        <ele>10.7118</ele>
        <time>2012-08-02T18:41:06Z</time>
      </trkpt>
      <trkpt lat="59.8923191" lon="17.6235382">
        <ele>10.2312</ele>
        <time>2012-08-02T18:41:10Z</time>
      </trkpt>
      <trkpt lat="59.892303" lon="17.6235844">
        <ele>9.75061</ele>
        <time>2012-08-02T18:41:11Z</time>
      </trkpt>
      <trkpt lat="59.8922071" lon="17.6238246">
        <ele>8.78918</ele>
        <time>2012-08-02T18:41:16Z</time>
      </trkpt>
      <trkpt lat="59.8921324" lon="17.6239593">
        <ele>11.1925</ele>
        <time>2012-08-02T18:41:20Z</time>
      </trkpt>
      <trkpt lat="59.8919898" lon="17.6240339">
        <ele>13.1151</ele>
        <time>2012-08-02T18:41:26Z</time>
      </trkpt>
      <trkpt lat="59.891912" lon="17.6240418">
        <ele>15.0377</ele>
        <time>2012-08-02T18:41:30Z</time>
      </trkpt>
      <trkpt lat="59.8917856" lon="17.6240532">
        <ele>16.9604</ele>
        <time>2012-08-02T18:41:35Z</time>
      </trkpt>
      <trkpt lat="59.8916474" lon="17.6240888">
        <ele>19.3638</ele>
        <time>2012-08-02T18:41:41Z</time>
      </trkpt>
      <trkpt lat="59.8915381" lon="17.6240867">
        <ele>20.325</ele>
        <time>2012-08-02T18:41:46Z</time>
      </trkpt>
      <trkpt lat="59.8914015" lon="17.6240619">
        <ele>20.325</ele>
        <time>2012-08-02T18:41:52Z</time>
      </trkpt>
      <trkpt lat="59.8912485" lon="17.624095">
        <ele>22.2476</ele>
        <time>2012-08-02T18:41:58Z</time>
      </trkpt>
      <trkpt lat="59.8911091" lon="17.6241043">
        <ele>23.209</ele>
        <time>2012-08-02T18:42:04Z</time>
      </trkpt>
      <trkpt lat="59.8909972" lon="17.6241069">
        <ele>23.6896</ele>
        <time>2012-08-02T18:42:09Z</time>
      </trkpt>
      <trkpt lat="59.8908515" lon="17.6240856">
        <ele>21.767</ele>
        <time>2012-08-02T18:42:15Z</time>
      </trkpt>
      <trkpt lat="59.8906873" lon="17.6240795">
        <ele>18.8831</ele>
        <time>2012-08-02T18:42:22Z</time>
      </trkpt>
      <trkpt lat="59.8905196" lon="17.6240494">
        <ele>17.9218</ele>
        <time>2012-08-02T18:42:29Z</time>
      </trkpt>
      <trkpt lat="59.8904061" lon="17.6240383">
        <ele>18.8831</ele>
        <time>2012-08-02T18:42:34Z</time>
      </trkpt>
      <trkpt lat="59.8902803" lon="17.6240177">
        <ele>19.8444</ele>
        <time>2012-08-02T18:42:39Z</time>
      </trkpt>
      <trkpt lat="59.8901336" lon="17.6240075">
        <ele>19.8444</ele>
        <time>2012-08-02T18:42:45Z</time>
      </trkpt>
      <trkpt lat="59.8900362" lon="17.6240219">
        <ele>20.8057</ele>
        <time>2012-08-02T18:42:49Z</time>
      </trkpt>
      <trkpt lat="59.8899207" lon="17.6239996">
        <ele>20.8057</ele>
        <time>2012-08-02T18:42:54Z</time>
      </trkpt>
      <trkpt lat="59.889829" lon="17.6240074">
        <ele>21.767</ele>
        <time>2012-08-02T18:42:58Z</time>
      </trkpt>
      <trkpt lat="59.8896871" lon="17.6240075">
        <ele>22.7283</ele>
        <time>2012-08-02T18:43:04Z</time>
      </trkpt>
      <trkpt lat="59.8896617" lon="17.6240189">
        <ele>23.209</ele>
        <time>2012-08-02T18:43:05Z</time>
      </trkpt>
      <trkpt lat="59.8895123" lon="17.6240049">
        <ele>25.1317</ele>
        <time>2012-08-02T18:43:11Z</time>
      </trkpt>
      <trkpt lat="59.889424" lon="17.6239127">
        <ele>25.6123</ele>
        <time>2012-08-02T18:43:15Z</time>
      </trkpt>
      <trkpt lat="59.8894144" lon="17.6238681">
        <ele>25.6123</ele>
        <time>2012-08-02T18:43:16Z</time>
      </trkpt>
      <trkpt lat="59.8893721" lon="17.6236783">
        <ele>24.651</ele>
        <time>2012-08-02T18:43:20Z</time>
      </trkpt>
      <trkpt lat="59.8892525" lon="17.6235314">
        <ele>23.6896</ele>
        <time>2012-08-02T18:43:26Z</time>
      </trkpt>
      <trkpt lat="59.8891685" lon="17.6234023">
        <ele>24.651</ele>
        <time>2012-08-02T18:43:31Z</time>
      </trkpt>
      <trkpt lat="59.8891197" lon="17.623246">
        <ele>23.6896</ele>
        <time>2012-08-02T18:43:36Z</time>
      </trkpt>
      <trkpt lat="59.88902" lon="17.6231715">
        <ele>24.651</ele>
        <time>2012-08-02T18:43:41Z</time>
      </trkpt>
      <trkpt lat="59.888972" lon="17.6231657">
        <ele>24.651</ele>
        <time>2012-08-02T18:43:43Z</time>
      </trkpt>
      <trkpt lat="59.8889264" lon="17.6230778">
        <ele>23.6896</ele>
        <time>2012-08-02T18:43:47Z</time>
      </trkpt>
      <trkpt lat="59.888809" lon="17.6229777">
        <ele>25.6123</ele>
        <time>2012-08-02T18:43:54Z</time>
      </trkpt>
      <trkpt lat="59.888736" lon="17.6230233">
        <ele>24.651</ele>
        <time>2012-08-02T18:43:58Z</time>
      </trkpt>
      <trkpt lat="59.888617" lon="17.6230977">
        <ele>25.1317</ele>
        <time>2012-08-02T18:44:06Z</time>
      </trkpt>
      <trkpt lat="59.8885625" lon="17.6231419">
        <ele>24.651</ele>
        <time>2012-08-02T18:44:09Z</time>
      </trkpt>
      <trkpt lat="59.888491" lon="17.6231121">
        <ele>23.6896</ele>
        <time>2012-08-02T18:44:13Z</time>
      </trkpt>
      <trkpt lat="59.888372" lon="17.6231443">
        <ele>25.6123</ele>
        <time>2012-08-02T18:44:21Z</time>
      </trkpt>
      <trkpt lat="59.8883344" lon="17.6231418">
        <ele>25.6123</ele>
        <time>2012-08-02T18:44:23Z</time>
      </trkpt>
      <trkpt lat="59.8882481" lon="17.623195">
        <ele>28.0155</ele>
        <time>2012-08-02T18:44:28Z</time>
      </trkpt>
      <trkpt lat="59.8881372" lon="17.6231635">
        <ele>29.9381</ele>
        <time>2012-08-02T18:44:35Z</time>
      </trkpt>
      <trkpt lat="59.8880577" lon="17.6231384">
        <ele>31.3801</ele>
        <time>2012-08-02T18:44:40Z</time>
      </trkpt>
      <trkpt lat="59.8879594" lon="17.6230599">
        <ele>31.8607</ele>
        <time>2012-08-02T18:44:46Z</time>
      </trkpt>
      <trkpt lat="59.8879484" lon="17.6230262">
        <ele>31.3801</ele>
        <time>2012-08-02T18:44:47Z</time>
      </trkpt>
      <trkpt lat="59.8878952" lon="17.622878">
        <ele>31.3801</ele>
        <time>2012-08-02T18:44:51Z</time>
      </trkpt>
      <trkpt lat="59.88787" lon="17.6227465">
        <ele>32.8223</ele>
        <time>2012-08-02T18:44:55Z</time>
      </trkpt>
      <trkpt lat="59.8878456" lon="17.6225928">
        <ele>35.7061</ele>
        <time>2012-08-02T18:45:00Z</time>
      </trkpt>
      <trkpt lat="59.8877816" lon="17.6224624">
        <ele>36.6675</ele>
        <time>2012-08-02T18:45:04Z</time>
      </trkpt>
      <trkpt lat="59.8877122" lon="17.6223069">
        <ele>38.1094</ele>
        <time>2012-08-02T18:45:09Z</time>
      </trkpt>
      <trkpt lat="59.8876812" lon="17.6222425">
        <ele>38.5901</ele>
        <time>2012-08-02T18:45:11Z</time>
      </trkpt>
      <trkpt lat="59.8875948" lon="17.6221467">
        <ele>40.5128</ele>
        <time>2012-08-02T18:45:16Z</time>
      </trkpt>
      <trkpt lat="59.8875503" lon="17.6220478">
        <ele>40.5128</ele>
        <time>2012-08-02T18:45:20Z</time>
      </trkpt>
      <trkpt lat="59.8874747" lon="17.621927">
        <ele>37.6287</ele>
        <time>2012-08-02T18:45:25Z</time>
      </trkpt>
      <trkpt lat="59.8874668" lon="17.6219057">
        <ele>37.1481</ele>
        <time>2012-08-02T18:45:26Z</time>
      </trkpt>
      <trkpt lat="59.8874147" lon="17.621736">
        <ele>34.7449</ele>
        <time>2012-08-02T18:45:32Z</time>
      </trkpt>
      <trkpt lat="59.8872676" lon="17.6216382">
        <ele>34.7449</ele>
        <time>2012-08-02T18:45:39Z</time>
      </trkpt>
      <trkpt lat="59.8871639" lon="17.6216391">
        <ele>34.7449</ele>
        <time>2012-08-02T18:45:43Z</time>
      </trkpt>
      <trkpt lat="59.8870415" lon="17.6215859">
        <ele>30.8995</ele>
        <time>2012-08-02T18:45:49Z</time>
      </trkpt>
      <trkpt lat="59.8869287" lon="17.621613">
        <ele>26.5736</ele>
        <time>2012-08-02T18:45:54Z</time>
      </trkpt>
      <trkpt lat="59.8867801" lon="17.6216091">
        <ele>24.651</ele>
        <time>2012-08-02T18:45:59Z</time>
      </trkpt>
      <trkpt lat="59.8866582" lon="17.6216366">
        <ele>23.209</ele>
        <time>2012-08-02T18:46:04Z</time>
      </trkpt>
      <trkpt lat="59.8865538" lon="17.6216716">
        <ele>22.2476</ele>
        <time>2012-08-02T18:46:08Z</time>
      </trkpt>
      <trkpt lat="59.8865314" lon="17.621681">
        <ele>21.767</ele>
        <time>2012-08-02T18:46:09Z</time>
      </trkpt>
      <trkpt lat="59.8864056" lon="17.6217044">
        <ele>20.325</ele>
        <time>2012-08-02T18:46:14Z</time>
      </trkpt>
      <trkpt lat="59.886293" lon="17.6217452">
        <ele>17.4412</ele>
        <time>2012-08-02T18:46:19Z</time>
      </trkpt>
      <trkpt lat="59.8861698" lon="17.6218184">
        <ele>15.999</ele>
        <time>2012-08-02T18:46:24Z</time>
      </trkpt>
      <trkpt lat="59.8860415" lon="17.6218843">
        <ele>15.999</ele>
        <time>2012-08-02T18:46:29Z</time>
      </trkpt>
      <trkpt lat="59.8859128" lon="17.6219699">
        <ele>15.999</ele>
        <time>2012-08-02T18:46:35Z</time>
      </trkpt>
      <trkpt lat="59.8858885" lon="17.6219774">
        <ele>15.999</ele>
        <time>2012-08-02T18:46:36Z</time>
      </trkpt>
      <trkpt lat="59.8857628" lon="17.6221319">
        <ele>16.9604</ele>
        <time>2012-08-02T18:46:42Z</time>
      </trkpt>
      <trkpt lat="59.8856972" lon="17.6222326">
        <ele>17.4412</ele>
        <time>2012-08-02T18:46:46Z</time>
      </trkpt>
      <trkpt lat="59.8856127" lon="17.6223794">
        <ele>18.4023</ele>
        <time>2012-08-02T18:46:51Z</time>
      </trkpt>
      <trkpt lat="59.8855504" lon="17.6225138">
        <ele>19.3638</ele>
        <time>2012-08-02T18:46:55Z</time>
      </trkpt>
      <trkpt lat="59.8854657" lon="17.6226239">
        <ele>20.325</ele>
        <time>2012-08-02T18:46:59Z</time>
      </trkpt>
      <trkpt lat="59.8853566" lon="17.6226501">
        <ele>21.2864</ele>
        <time>2012-08-02T18:47:03Z</time>
      </trkpt>
      <trkpt lat="59.8852486" lon="17.6226953">
        <ele>24.651</ele>
        <time>2012-08-02T18:47:08Z</time>
      </trkpt>
      <trkpt lat="59.885216" lon="17.6227107">
        <ele>24.651</ele>
        <time>2012-08-02T18:47:09Z</time>
      </trkpt>
      <trkpt lat="59.885067" lon="17.6227755">
        <ele>24.651</ele>
        <time>2012-08-02T18:47:15Z</time>
      </trkpt>
      <trkpt lat="59.8849608" lon="17.6228466">
        <ele>23.6896</ele>
        <time>2012-08-02T18:47:20Z</time>
      </trkpt>
      <trkpt lat="59.8849163" lon="17.6228921">
        <ele>23.6896</ele>
        <time>2012-08-02T18:47:22Z</time>
      </trkpt>
      <trkpt lat="59.8847826" lon="17.6229957">
        <ele>23.209</ele>
        <time>2012-08-02T18:47:28Z</time>
      </trkpt>
      <trkpt lat="59.884682" lon="17.623115">
        <ele>22.7283</ele>
        <time>2012-08-02T18:47:33Z</time>
      </trkpt>
      <trkpt lat="59.8845515" lon="17.6232522">
        <ele>21.767</ele>
        <time>2012-08-02T18:47:39Z</time>
      </trkpt>
      <trkpt lat="59.8844304" lon="17.623332">
        <ele>21.767</ele>
        <time>2012-08-02T18:47:44Z</time>
      </trkpt>
      <trkpt lat="59.8842613" lon="17.6234211">
        <ele>21.767</ele>
        <time>2012-08-02T18:47:51Z</time>
      </trkpt>
      <trkpt lat="59.8841568" lon="17.6234956">
        <ele>21.767</ele>
        <time>2012-08-02T18:47:56Z</time>
      </trkpt>
      <trkpt lat="59.8840578" lon="17.6235756">
        <ele>20.325</ele>
        <time>2012-08-02T18:48:00Z</time>
      </trkpt>
      <trkpt lat="59.8839508" lon="17.6237115">
        <ele>19.8444</ele>
        <time>2012-08-02T18:48:05Z</time>
      </trkpt>
      <trkpt lat="59.8838927" lon="17.6238053">
        <ele>19.3638</ele>
        <time>2012-08-02T18:48:08Z</time>
      </trkpt>
      <trkpt lat="59.8837813" lon="17.6239707">
        <ele>19.3638</ele>
        <time>2012-08-02T18:48:14Z</time>
      </trkpt>
      <trkpt lat="59.8837003" lon="17.6240676">
        <ele>21.767</ele>
        <time>2012-08-02T18:48:19Z</time>
      </trkpt>
      <trkpt lat="59.883598" lon="17.6241857">
        <ele>22.2476</ele>
        <time>2012-08-02T18:48:24Z</time>
      </trkpt>
      <trkpt lat="59.8834706" lon="17.6243179">
        <ele>21.767</ele>
        <time>2012-08-02T18:48:30Z</time>
      </trkpt>
      <trkpt lat="59.8833798" lon="17.6244662">
        <ele>21.2864</ele>
        <time>2012-08-02T18:48:35Z</time>
      </trkpt>
      <trkpt lat="59.8833032" lon="17.6246867">
        <ele>21.767</ele>
        <time>2012-08-02T18:48:40Z</time>
      </trkpt>
      <trkpt lat="59.8832274" lon="17.6248808">
        <ele>22.7283</ele>
        <time>2012-08-02T18:48:45Z</time>
      </trkpt>
      <trkpt lat="59.883131" lon="17.625101">
        <ele>22.7283</ele>
        <time>2012-08-02T18:48:51Z</time>
      </trkpt>
      <trkpt lat="59.8830398" lon="17.6252796">
        <ele>21.2864</ele>
        <time>2012-08-02T18:48:56Z</time>
      </trkpt>
      <trkpt lat="59.8829638" lon="17.6254108">
        <ele>20.8057</ele>
        <time>2012-08-02T18:49:00Z</time>
      </trkpt>
      <trkpt lat="59.8828509" lon="17.6255463">
        <ele>19.8444</ele>
        <time>2012-08-02T18:49:05Z</time>
      </trkpt>
      <trkpt lat="59.8827292" lon="17.6256806">
        <ele>18.4023</ele>
        <time>2012-08-02T18:49:10Z</time>
      </trkpt>
      <trkpt lat="59.8826207" lon="17.6258064">
        <ele>17.9218</ele>
        <time>2012-08-02T18:49:15Z</time>
      </trkpt>
      <trkpt lat="59.8824842" lon="17.6258994">
        <ele>17.4412</ele>
        <time>2012-08-02T18:49:21Z</time>
      </trkpt>
      <trkpt lat="59.8823853" lon="17.6258397">
        <ele>16.4797</ele>
        <time>2012-08-02T18:49:26Z</time>
      </trkpt>
      <trkpt lat="59.882269" lon="17.6258156">
        <ele>16.9604</ele>
        <time>2012-08-02T18:49:31Z</time>
      </trkpt>
      <trkpt lat="59.882167" lon="17.6257796">
        <ele>16.4797</ele>
        <time>2012-08-02T18:49:36Z</time>
      </trkpt>
      <trkpt lat="59.882087" lon="17.6257905">
        <ele>18.4023</ele>
        <time>2012-08-02T18:49:40Z</time>
      </trkpt>
      <trkpt lat="59.8820252" lon="17.6259147">
        <ele>19.8444</ele>
        <time>2012-08-02T18:49:44Z</time>
      </trkpt>
      <trkpt lat="59.8819745" lon="17.6260194">
        <ele>20.8057</ele>
        <time>2012-08-02T18:49:47Z</time>
      </trkpt>
      <trkpt lat="59.8818719" lon="17.6262229">
        <ele>24.651</ele>
        <time>2012-08-02T18:49:53Z</time>
      </trkpt>
      <trkpt lat="59.8817526" lon="17.626358">
        <ele>25.1317</ele>
        <time>2012-08-02T18:49:58Z</time>
      </trkpt>
      <trkpt lat="59.8816611" lon="17.6264204">
        <ele>27.5349</ele>
        <time>2012-08-02T18:50:02Z</time>
      </trkpt>
      <trkpt lat="59.8815254" lon="17.6264293">
        <ele>27.5349</ele>
        <time>2012-08-02T18:50:08Z</time>
      </trkpt>
      <trkpt lat="59.8814782" lon="17.6264271">
        <ele>28.0155</ele>
        <time>2012-08-02T18:50:10Z</time>
      </trkpt>
      <trkpt lat="59.8813849" lon="17.6265519">
        <ele>28.9769</ele>
        <time>2012-08-02T18:50:15Z</time>
      </trkpt>
      <trkpt lat="59.8813532" lon="17.6266699">
        <ele>30.4188</ele>
        <time>2012-08-02T18:50:20Z</time>
      </trkpt>
      <trkpt lat="59.8813771" lon="17.6267509">
        <ele>33.3029</ele>
        <time>2012-08-02T18:50:24Z</time>
      </trkpt>
      <trkpt lat="59.881416" lon="17.6268938">
        <ele>34.2642</ele>
        <time>2012-08-02T18:50:30Z</time>
      </trkpt>
      <trkpt lat="59.8814679" lon="17.6269487">
        <ele>35.7061</ele>
        <time>2012-08-02T18:50:34Z</time>
      </trkpt>
      <trkpt lat="59.8815067" lon="17.6269711">
        <ele>37.1481</ele>
        <time>2012-08-02T18:50:38Z</time>
      </trkpt>
      <trkpt lat="59.8815926" lon="17.6270385">
        <ele>33.3029</ele>
        <time>2012-08-02T18:50:44Z</time>
      </trkpt>
      <trkpt lat="59.8816728" lon="17.6270728">
        <ele>33.3029</ele>
        <time>2012-08-02T18:50:48Z</time>
      </trkpt>
      <trkpt lat="59.8817531" lon="17.627191">
        <ele>36.1868</ele>
        <time>2012-08-02T18:50:53Z</time>
      </trkpt>
      <trkpt lat="59.8817516" lon="17.6273684">
        <ele>38.5901</ele>
        <time>2012-08-02T18:50:59Z</time>
      </trkpt>
      <trkpt lat="59.8817678" lon="17.6275733">
        <ele>40.0321</ele>
        <time>2012-08-02T18:51:06Z</time>
      </trkpt>
      <trkpt lat="59.8817507" lon="17.6277719">
        <ele>41.9547</ele>
        <time>2012-08-02T18:51:12Z</time>
      </trkpt>
      <trkpt lat="59.8817394" lon="17.6278878">
        <ele>40.0321</ele>
        <time>2012-08-02T18:51:16Z</time>
      </trkpt>
      <trkpt lat="59.8817434" lon="17.6280019">
        <ele>39.0707</ele>
        <time>2012-08-02T18:51:21Z</time>
      </trkpt>
      <trkpt lat="59.8817564" lon="17.6280499">
        <ele>39.0707</ele>
        <time>2012-08-02T18:51:23Z</time>
      </trkpt>
      <trkpt lat="59.881788" lon="17.6281526">
        <ele>39.0707</ele>
        <time>2012-08-02T18:51:28Z</time>
      </trkpt>
      <trkpt lat="59.8818333" lon="17.6282075">
        <ele>37.6287</ele>
        <time>2012-08-02T18:51:32Z</time>
      </trkpt>
      <trkpt lat="59.8818971" lon="17.6281829">
        <ele>34.7449</ele>
        <time>2012-08-02T18:51:38Z</time>
      </trkpt>
      <trkpt lat="59.8820034" lon="17.628133">
        <ele>33.3029</ele>
        <time>2012-08-02T18:51:44Z</time>
      </trkpt>
      <trkpt lat="59.8821431" lon="17.6281166">
        <ele>27.5349</ele>
        <time>2012-08-02T18:51:50Z</time>
      </trkpt>
      <trkpt lat="59.8822607" lon="17.6280146">
        <ele>25.6123</ele>
        <time>2012-08-02T18:51:55Z</time>
      </trkpt>
      <trkpt lat="59.8823576" lon="17.6278937">
        <ele>24.651</ele>
        <time>2012-08-02T18:51:59Z</time>
      </trkpt>
      <trkpt lat="59.8824298" lon="17.6276792">
        <ele>20.8057</ele>
        <time>2012-08-02T18:52:05Z</time>
      </trkpt>
      <trkpt lat="59.882475" lon="17.6274424">
        <ele>13.5958</ele>
        <time>2012-08-02T18:52:10Z</time>
      </trkpt>
      <trkpt lat="59.8825006" lon="17.627164">
        <ele>5.90527</ele>
        <time>2012-08-02T18:52:17Z</time>
      </trkpt>
      <trkpt lat="59.8825127" lon="17.6269195">
        <ele>4.94385</ele>
        <time>2012-08-02T18:52:22Z</time>
      </trkpt>
      <trkpt lat="59.8825059" lon="17.6266637">
        <ele>5.42456</ele>
        <time>2012-08-02T18:52:27Z</time>
      </trkpt>
      <trkpt lat="59.8825013" lon="17.6264176">
        <ele>8.30859</ele>
        <time>2012-08-02T18:52:32Z</time>
      </trkpt>
      <trkpt lat="59.8824966" lon="17.6261762">
        <ele>10.7118</ele>
        <time>2012-08-02T18:52:37Z</time>
      </trkpt>
      <trkpt lat="59.8825081" lon="17.6261369">
        <ele>11.1925</ele>
        <time>2012-08-02T18:52:38Z</time>
      </trkpt>
      <trkpt lat="59.8825883" lon="17.626032">
        <ele>12.1538</ele>
        <time>2012-08-02T18:52:43Z</time>
      </trkpt>
      <trkpt lat="59.8827189" lon="17.6260334">
        <ele>12.1538</ele>
        <time>2012-08-02T18:52:49Z</time>
      </trkpt>
      <trkpt lat="59.8828372" lon="17.6260065">
        <ele>13.1151</ele>
        <time>2012-08-02T18:52:54Z</time>
      </trkpt>
      <trkpt lat="59.8829535" lon="17.6259465">
        <ele>13.5958</ele>
        <time>2012-08-02T18:52:59Z</time>
      </trkpt>
      <trkpt lat="59.8830786" lon="17.6259029">
        <ele>16.9604</ele>
        <time>2012-08-02T18:53:04Z</time>
      </trkpt>
      <trkpt lat="59.8831224" lon="17.6258752">
        <ele>16.9604</ele>
        <time>2012-08-02T18:53:06Z</time>
      </trkpt>
      <trkpt lat="59.8832612" lon="17.6257936">
        <ele>16.4797</ele>
        <time>2012-08-02T18:53:12Z</time>
      </trkpt>
      <trkpt lat="59.8833932" lon="17.62572">
        <ele>15.5184</ele>
        <time>2012-08-02T18:53:18Z</time>
      </trkpt>
      <trkpt lat="59.8835757" lon="17.6256786">
        <ele>17.4412</ele>
        <time>2012-08-02T18:53:25Z</time>
      </trkpt>
      <trkpt lat="59.8837154" lon="17.6256647">
        <ele>18.8831</ele>
        <time>2012-08-02T18:53:30Z</time>
      </trkpt>
      <trkpt lat="59.8837683" lon="17.6256489">
        <ele>18.8831</ele>
        <time>2012-08-02T18:53:32Z</time>
      </trkpt>
      <trkpt lat="59.8838899" lon="17.6256185">
        <ele>17.9218</ele>
        <time>2012-08-02T18:53:37Z</time>
      </trkpt>
      <trkpt lat="59.8839693" lon="17.6256086">
        <ele>15.5184</ele>
        <time>2012-08-02T18:53:41Z</time>
      </trkpt>
      <trkpt lat="59.8841292" lon="17.6256008">
        <ele>15.0377</ele>
        <time>2012-08-02T18:53:48Z</time>
      </trkpt>
      <trkpt lat="59.8842427" lon="17.6255872">
        <ele>15.999</ele>
        <time>2012-08-02T18:53:53Z</time>
      </trkpt>
      <trkpt lat="59.8843714" lon="17.6255735">
        <ele>15.0377</ele>
        <time>2012-08-02T18:53:58Z</time>
      </trkpt>
      <trkpt lat="59.8845152" lon="17.6255839">
        <ele>16.4797</ele>
        <time>2012-08-02T18:54:04Z</time>
      </trkpt>
      <trkpt lat="59.8846513" lon="17.625572">
        <ele>15.5184</ele>
        <time>2012-08-02T18:54:10Z</time>
      </trkpt>
      <trkpt lat="59.8847448" lon="17.6255738">
        <ele>15.0377</ele>
        <time>2012-08-02T18:54:14Z</time>
      </trkpt>
      <trkpt lat="59.8848935" lon="17.625578">
        <ele>16.4797</ele>
        <time>2012-08-02T18:54:20Z</time>
      </trkpt>
      <trkpt lat="59.8849799" lon="17.6255811">
        <ele>14.557</ele>
        <time>2012-08-02T18:54:24Z</time>
      </trkpt>
      <trkpt lat="59.8850913" lon="17.625586">
        <ele>12.1538</ele>
        <time>2012-08-02T18:54:29Z</time>
      </trkpt>
      <trkpt lat="59.8852306" lon="17.625591">
        <ele>10.7118</ele>
        <time>2012-08-02T18:54:35Z</time>
      </trkpt>
      <trkpt lat="59.8853316" lon="17.6255469">
        <ele>8.30859</ele>
        <time>2012-08-02T18:54:40Z</time>
      </trkpt>
      <trkpt lat="59.8853845" lon="17.6255528">
        <ele>7.82788</ele>
        <time>2012-08-02T18:54:42Z</time>
      </trkpt>
      <trkpt lat="59.8854599" lon="17.6255102">
        <ele>5.42456</ele>
        <time>2012-08-02T18:54:46Z</time>
      </trkpt>
      <trkpt lat="59.8855819" lon="17.6254419">
        <ele>4.46326</ele>
        <time>2012-08-02T18:54:52Z</time>
      </trkpt>
      <trkpt lat="59.8856968" lon="17.6254132">
        <ele>4.46326</ele>
        <time>2012-08-02T18:54:57Z</time>
      </trkpt>
      <trkpt lat="59.885812" lon="17.625418">
        <ele>5.42456</ele>
        <time>2012-08-02T18:55:02Z</time>
      </trkpt>
      <trkpt lat="59.8858335" lon="17.6254517">
        <ele>6.38586</ele>
        <time>2012-08-02T18:55:03Z</time>
      </trkpt>
      <trkpt lat="59.8859185" lon="17.6255961">
        <ele>7.82788</ele>
        <time>2012-08-02T18:55:09Z</time>
      </trkpt>
      <trkpt lat="59.8860784" lon="17.6256314">
        <ele>10.7118</ele>
        <time>2012-08-02T18:55:16Z</time>
      </trkpt>
      <trkpt lat="59.8862351" lon="17.6256278">
        <ele>12.1538</ele>
        <time>2012-08-02T18:55:23Z</time>
      </trkpt>
      <trkpt lat="59.8863437" lon="17.6256201">
        <ele>13.1151</ele>
        <time>2012-08-02T18:55:28Z</time>
      </trkpt>
      <trkpt lat="59.8864531" lon="17.6256299">
        <ele>12.1538</ele>
        <time>2012-08-02T18:55:33Z</time>
      </trkpt>
      <trkpt lat="59.8865598" lon="17.6256283">
        <ele>13.1151</ele>
        <time>2012-08-02T18:55:38Z</time>
      </trkpt>
      <trkpt lat="59.8866881" lon="17.6256361">
        <ele>13.5958</ele>
        <time>2012-08-02T18:55:44Z</time>
      </trkpt>
      <trkpt lat="59.8868475" lon="17.6256397">
        <ele>15.5184</ele>
        <time>2012-08-02T18:55:51Z</time>
      </trkpt>
      <trkpt lat="59.8869518" lon="17.6256273">
        <ele>16.4797</ele>
        <time>2012-08-02T18:55:56Z</time>
      </trkpt>
      <trkpt lat="59.8870727" lon="17.6255491">
        <ele>16.9604</ele>
        <time>2012-08-02T18:56:02Z</time>
      </trkpt>
      <trkpt lat="59.8871534" lon="17.6254639">
        <ele>17.9218</ele>
        <time>2012-08-02T18:56:06Z</time>
      </trkpt>
      <trkpt lat="59.8872272" lon="17.6253569">
        <ele>19.8444</ele>
        <time>2012-08-02T18:56:11Z</time>
      </trkpt>
      <trkpt lat="59.8872736" lon="17.6252351">
        <ele>18.8831</ele>
        <time>2012-08-02T18:56:15Z</time>
      </trkpt>
      <trkpt lat="59.8873043" lon="17.6251383">
        <ele>17.9218</ele>
        <time>2012-08-02T18:56:18Z</time>
      </trkpt>
      <trkpt lat="59.8873504" lon="17.6250321">
        <ele>19.3638</ele>
        <time>2012-08-02T18:56:23Z</time>
      </trkpt>
      <trkpt lat="59.8874268" lon="17.6248447">
        <ele>20.8057</ele>
        <time>2012-08-02T18:56:30Z</time>
      </trkpt>
      <trkpt lat="59.8875073" lon="17.6246613">
        <ele>21.2864</ele>
        <time>2012-08-02T18:56:37Z</time>
      </trkpt>
      <trkpt lat="59.8875543" lon="17.6245337">
        <ele>20.325</ele>
        <time>2012-08-02T18:56:42Z</time>
      </trkpt>
      <trkpt lat="59.8876069" lon="17.6244012">
        <ele>19.8444</ele>
        <time>2012-08-02T18:56:47Z</time>
      </trkpt>
      <trkpt lat="59.88767" lon="17.6242414">
        <ele>20.325</ele>
        <time>2012-08-02T18:56:54Z</time>
      </trkpt>
      <trkpt lat="59.8877469" lon="17.6241003">
        <ele>24.1703</ele>
        <time>2012-08-02T18:57:00Z</time>
      </trkpt>
      <trkpt lat="59.8877663" lon="17.6240799">
        <ele>25.6123</ele>
        <time>2012-08-02T18:57:01Z</time>
      </trkpt>
      <trkpt lat="59.8878687" lon="17.623925">
        <ele>28.0155</ele>
        <time>2012-08-02T18:57:07Z</time>
      </trkpt>
      <trkpt lat="59.8879383" lon="17.6237302">
        <ele>26.0929</ele>
        <time>2012-08-02T18:57:13Z</time>
      </trkpt>
      <trkpt lat="59.8880563" lon="17.6236009">
        <ele>28.0155</ele>
        <time>2012-08-02T18:57:20Z</time>
      </trkpt>
      <trkpt lat="59.8880719" lon="17.6235795">
        <ele>28.0155</ele>
        <time>2012-08-02T18:57:21Z</time>
      </trkpt>
      <trkpt lat="59.8881324" lon="17.6235537">
        <ele>28.9769</ele>
        <time>2012-08-02T18:57:24Z</time>
      </trkpt>
      <trkpt lat="59.8882131" lon="17.6236193">
        <ele>27.0543</ele>
        <time>2012-08-02T18:57:30Z</time>
      </trkpt>
      <trkpt lat="59.8883325" lon="17.6237219">
        <ele>28.9769</ele>
        <time>2012-08-02T18:57:36Z</time>
      </trkpt>
      <trkpt lat="59.8884201" lon="17.6238172">
        <ele>30.4188</ele>
        <time>2012-08-02T18:57:40Z</time>
      </trkpt>
      <trkpt lat="59.8885438" lon="17.6239267">
        <ele>30.4188</ele>
        <time>2012-08-02T18:57:45Z</time>
      </trkpt>
      <trkpt lat="59.8886784" lon="17.6239381">
        <ele>31.3801</ele>
        <time>2012-08-02T18:57:50Z</time>
      </trkpt>
      <trkpt lat="59.8887864" lon="17.6239256">
        <ele>31.8607</ele>
        <time>2012-08-02T18:57:54Z</time>
      </trkpt>
      <trkpt lat="59.8889075" lon="17.6238482">
        <ele>35.2255</ele>
        <time>2012-08-02T18:57:59Z</time>
      </trkpt>
      <trkpt lat="59.8889815" lon="17.6236826">
        <ele>34.2642</ele>
        <time>2012-08-02T18:58:04Z</time>
      </trkpt>
      <trkpt lat="59.8890023" lon="17.6234935">
        <ele>30.4188</ele>
        <time>2012-08-02T18:58:09Z</time>
      </trkpt>
      <trkpt lat="59.8890477" lon="17.6233578">
        <ele>26.5736</ele>
        <time>2012-08-02T18:58:12Z</time>
      </trkpt>
      <trkpt lat="59.8890185" lon="17.6231513">
        <ele>21.2864</ele>
        <time>2012-08-02T18:58:17Z</time>
      </trkpt>
      <trkpt lat="59.8889418" lon="17.6230026">
        <ele>16.9604</ele>
        <time>2012-08-02T18:58:22Z</time>
      </trkpt>
      <trkpt lat="59.8888458" lon="17.622912">
        <ele>16.9604</ele>
        <time>2012-08-02T18:58:27Z</time>
      </trkpt>
      <trkpt lat="59.8887723" lon="17.6229536">
        <ele>18.4023</ele>
        <time>2012-08-02T18:58:31Z</time>
      </trkpt>
      <trkpt lat="59.888722" lon="17.6230031">
        <ele>20.325</ele>
        <time>2012-08-02T18:58:34Z</time>
      </trkpt>
      <trkpt lat="59.888619" lon="17.6231279">
        <ele>22.7283</ele>
        <time>2012-08-02T18:58:39Z</time>
      </trkpt>
      <trkpt lat="59.8885909" lon="17.6231429">
        <ele>23.209</ele>
        <time>2012-08-02T18:58:40Z</time>
      </trkpt>
      <trkpt lat="59.8884606" lon="17.6231667">
        <ele>28.4962</ele>
        <time>2012-08-02T18:58:46Z</time>
      </trkpt>
      <trkpt lat="59.8883772" lon="17.6231731">
        <ele>28.9769</ele>
        <time>2012-08-02T18:58:51Z</time>
      </trkpt>
      <trkpt lat="59.8882454" lon="17.623131">
        <ele>30.4188</ele>
        <time>2012-08-02T18:58:58Z</time>
      </trkpt>
      <trkpt lat="59.888137" lon="17.6231476">
        <ele>31.8607</ele>
        <time>2012-08-02T18:59:04Z</time>
      </trkpt>
      <trkpt lat="59.8880824" lon="17.6231495">
        <ele>33.7834</ele>
        <time>2012-08-02T18:59:08Z</time>
      </trkpt>
      <trkpt lat="59.8879881" lon="17.6230897">
        <ele>36.1868</ele>
        <time>2012-08-02T18:59:14Z</time>
      </trkpt>
      <trkpt lat="59.8879284" lon="17.6230626">
        <ele>38.5901</ele>
        <time>2012-08-02T18:59:18Z</time>
      </trkpt>
      <trkpt lat="59.8879057" lon="17.6230347">
        <ele>38.5901</ele>
        <time>2012-08-02T18:59:20Z</time>
      </trkpt>
      <trkpt lat="59.8878508" lon="17.6229384">
        <ele>40.0321</ele>
        <time>2012-08-02T18:59:25Z</time>
      </trkpt>
      <trkpt lat="59.8878274" lon="17.6230045">
        <ele>41.474</ele>
        <time>2012-08-02T18:59:30Z</time>
      </trkpt>
      <trkpt lat="59.8878719" lon="17.623164">
        <ele>43.8773</ele>
        <time>2012-08-02T18:59:34Z</time>
      </trkpt>
      <trkpt lat="59.8878983" lon="17.6233366">
        <ele>43.3966</ele>
        <time>2012-08-02T18:59:39Z</time>
      </trkpt>
      <trkpt lat="59.8879601" lon="17.6236097">
        <ele>44.8386</ele>
        <time>2012-08-02T18:59:47Z</time>
      </trkpt>
      <trkpt lat="59.8879409" lon="17.6236883">
        <ele>43.8773</ele>
        <time>2012-08-02T18:59:49Z</time>
      </trkpt>
      <trkpt lat="59.8878817" lon="17.6238386">
        <ele>42.916</ele>
        <time>2012-08-02T18:59:54Z</time>
      </trkpt>
      <trkpt lat="59.8878128" lon="17.6239705">
        <ele>40.5128</ele>
        <time>2012-08-02T18:59:59Z</time>
      </trkpt>
      <trkpt lat="59.8876856" lon="17.6241774">
        <ele>37.6287</ele>
        <time>2012-08-02T19:00:06Z</time>
      </trkpt>
      <trkpt lat="59.8876228" lon="17.6243286">
        <ele>37.1481</ele>
        <time>2012-08-02T19:00:10Z</time>
      </trkpt>
      <trkpt lat="59.8875902" lon="17.6244669">
        <ele>34.7449</ele>
        <time>2012-08-02T19:00:15Z</time>
      </trkpt>
      <trkpt lat="59.8875587" lon="17.6245474">
        <ele>31.3801</ele>
        <time>2012-08-02T19:00:18Z</time>
      </trkpt>
      <trkpt lat="59.8874758" lon="17.6247378">
        <ele>29.4575</ele>
        <time>2012-08-02T19:00:24Z</time>
      </trkpt>
      <trkpt lat="59.8874009" lon="17.6248164">
        <ele>27.0543</ele>
        <time>2012-08-02T19:00:28Z</time>
      </trkpt>
      <trkpt lat="59.8873882" lon="17.6248326">
        <ele>26.0929</ele>
        <time>2012-08-02T19:00:29Z</time>
      </trkpt>
      <trkpt lat="59.8873158" lon="17.6249732">
        <ele>26.5736</ele>
        <time>2012-08-02T19:00:34Z</time>
      </trkpt>
      <trkpt lat="59.8872888" lon="17.6250269">
        <ele>25.6123</ele>
        <time>2012-08-02T19:00:36Z</time>
      </trkpt>
      <trkpt lat="59.8871935" lon="17.6252256">
        <ele>23.209</ele>
        <time>2012-08-02T19:00:42Z</time>
      </trkpt>
      <trkpt lat="59.8871706" lon="17.6252988">
        <ele>24.1703</ele>
        <time>2012-08-02T19:00:44Z</time>
      </trkpt>
      <trkpt lat="59.8872193" lon="17.6254174">
        <ele>25.6123</ele>
        <time>2012-08-02T19:00:50Z</time>
      </trkpt>
      <trkpt lat="59.8873186" lon="17.6253641">
        <ele>24.651</ele>
        <time>2012-08-02T19:00:54Z</time>
      </trkpt>
      <trkpt lat="59.8873461" lon="17.6253532">
        <ele>23.6896</ele>
        <time>2012-08-02T19:00:55Z</time>
      </trkpt>
      <trkpt lat="59.887504" lon="17.6252928">
        <ele>24.651</ele>
        <time>2012-08-02T19:01:02Z</time>
      </trkpt>
      <trkpt lat="59.8875934" lon="17.6252601">
        <ele>25.1317</ele>
        <time>2012-08-02T19:01:06Z</time>
      </trkpt>
      <trkpt lat="59.8877088" lon="17.625223">
        <ele>25.1317</ele>
        <time>2012-08-02T19:01:11Z</time>
      </trkpt>
      <trkpt lat="59.8878307" lon="17.6252072">
        <ele>26.5736</ele>
        <time>2012-08-02T19:01:17Z</time>
      </trkpt>
      <trkpt lat="59.8879448" lon="17.6251658">
        <ele>25.1317</ele>
        <time>2012-08-02T19:01:22Z</time>
      </trkpt>
      <trkpt lat="59.8880735" lon="17.6250837">
        <ele>24.1703</ele>
        <time>2012-08-02T19:01:28Z</time>
      </trkpt>
      <trkpt lat="59.8881819" lon="17.6250467">
        <ele>24.1703</ele>
        <time>2012-08-02T19:01:33Z</time>
      </trkpt>
      <trkpt lat="59.8882465" lon="17.6250381">
        <ele>22.7283</ele>
        <time>2012-08-02T19:01:36Z</time>
      </trkpt>
      <trkpt lat="59.8883592" lon="17.6250579">
        <ele>23.6896</ele>
        <time>2012-08-02T19:01:41Z</time>
      </trkpt>
      <trkpt lat="59.8885402" lon="17.6250295">
        <ele>24.651</ele>
        <time>2012-08-02T19:01:48Z</time>
      </trkpt>
      <trkpt lat="59.8886509" lon="17.6249894">
        <ele>24.1703</ele>
        <time>2012-08-02T19:01:53Z</time>
      </trkpt>
      <trkpt lat="59.8888132" lon="17.6248943">
        <ele>22.7283</ele>
        <time>2012-08-02T19:02:00Z</time>
      </trkpt>
      <trkpt lat="59.888951" lon="17.6247767">
        <ele>20.8057</ele>
        <time>2012-08-02T19:02:07Z</time>
      </trkpt>
      <trkpt lat="59.8890801" lon="17.6246824">
        <ele>20.325</ele>
        <time>2012-08-02T19:02:13Z</time>
      </trkpt>
      <trkpt lat="59.8891955" lon="17.6246072">
        <ele>20.325</ele>
        <time>2012-08-02T19:02:18Z</time>
      </trkpt>
      <trkpt lat="59.8893023" lon="17.624512">
        <ele>21.2864</ele>
        <time>2012-08-02T19:02:23Z</time>
      </trkpt>
      <trkpt lat="59.8894483" lon="17.6243166">
        <ele>20.325</ele>
        <time>2012-08-02T19:02:30Z</time>
      </trkpt>
      <trkpt lat="59.8894657" lon="17.6242825">
        <ele>20.325</ele>
        <time>2012-08-02T19:02:31Z</time>
      </trkpt>
      <trkpt lat="59.889556" lon="17.6241891">
        <ele>20.8057</ele>
        <time>2012-08-02T19:02:35Z</time>
      </trkpt>
      <trkpt lat="59.8897154" lon="17.6241281">
        <ele>21.767</ele>
        <time>2012-08-02T19:02:41Z</time>
      </trkpt>
      <trkpt lat="59.8898098" lon="17.6241167">
        <ele>21.2864</ele>
        <time>2012-08-02T19:02:45Z</time>
      </trkpt>
      <trkpt lat="59.8899192" lon="17.6241076">
        <ele>20.325</ele>
        <time>2012-08-02T19:02:50Z</time>
      </trkpt>
      <trkpt lat="59.8900669" lon="17.6240996">
        <ele>18.8831</ele>
        <time>2012-08-02T19:02:56Z</time>
      </trkpt>
      <trkpt lat="59.8901994" lon="17.6241269">
        <ele>19.3638</ele>
        <time>2012-08-02T19:03:01Z</time>
      </trkpt>
      <trkpt lat="59.8902889" lon="17.6241241">
        <ele>18.4023</ele>
        <time>2012-08-02T19:03:06Z</time>
      </trkpt>
      <trkpt lat="59.8904206" lon="17.6241361">
        <ele>17.9218</ele>
        <time>2012-08-02T19:03:13Z</time>
      </trkpt>
      <trkpt lat="59.8905292" lon="17.624169">
        <ele>18.8831</ele>
        <time>2012-08-02T19:03:18Z</time>
      </trkpt>
      <trkpt lat="59.8906691" lon="17.624166">
        <ele>17.9218</ele>
        <time>2012-08-02T19:03:25Z</time>
      </trkpt>
      <trkpt lat="59.8907749" lon="17.6241592">
        <ele>17.9218</ele>
        <time>2012-08-02T19:03:30Z</time>
      </trkpt>
      <trkpt lat="59.8908215" lon="17.6241686">
        <ele>18.8831</ele>
        <time>2012-08-02T19:03:32Z</time>
      </trkpt>
      <trkpt lat="59.8909262" lon="17.6241489">
        <ele>19.8444</ele>
        <time>2012-08-02T19:03:37Z</time>
      </trkpt>
      <trkpt lat="59.8911018" lon="17.6241556">
        <ele>22.2476</ele>
        <time>2012-08-02T19:03:45Z</time>
      </trkpt>
      <trkpt lat="59.8912339" lon="17.6241608">
        <ele>22.2476</ele>
        <time>2012-08-02T19:03:51Z</time>
      </trkpt>
      <trkpt lat="59.8913689" lon="17.6241649">
        <ele>22.2476</ele>
        <time>2012-08-02T19:03:57Z</time>
      </trkpt>
      <trkpt lat="59.8915166" lon="17.6241678">
        <ele>24.1703</ele>
        <time>2012-08-02T19:04:04Z</time>
      </trkpt>
      <trkpt lat="59.891622" lon="17.6241546">
        <ele>23.209</ele>
        <time>2012-08-02T19:04:09Z</time>
      </trkpt>
      <trkpt lat="59.8917767" lon="17.624128">
        <ele>22.7283</ele>
        <time>2012-08-02T19:04:16Z</time>
      </trkpt>
      <trkpt lat="59.8918958" lon="17.6241245">
        <ele>24.1703</ele>
        <time>2012-08-02T19:04:22Z</time>
      </trkpt>
      <trkpt lat="59.8919965" lon="17.6241275">
        <ele>24.1703</ele>
        <time>2012-08-02T19:04:27Z</time>
      </trkpt>
      <trkpt lat="59.8921279" lon="17.6240474">
        <ele>23.6896</ele>
        <time>2012-08-02T19:04:33Z</time>
      </trkpt>
      <trkpt lat="59.8922092" lon="17.6238897">
        <ele>22.2476</ele>
        <time>2012-08-02T19:04:38Z</time>
      </trkpt>
      <trkpt lat="59.8922894" lon="17.62375">
        <ele>20.8057</ele>
        <time>2012-08-02T19:04:43Z</time>
      </trkpt>
      <trkpt lat="59.8923539" lon="17.6236312">
        <ele>21.2864</ele>
        <time>2012-08-02T19:04:47Z</time>
      </trkpt>
      <trkpt lat="59.8924253" lon="17.6234957">
        <ele>21.767</ele>
        <time>2012-08-02T19:04:52Z</time>
      </trkpt>
      <trkpt lat="59.8925232" lon="17.6233587">
        <ele>23.6896</ele>
        <time>2012-08-02T19:04:58Z</time>
      </trkpt>
      <trkpt lat="59.8926313" lon="17.6232413">
        <ele>19.3638</ele>
        <time>2012-08-02T19:05:04Z</time>
      </trkpt>
      <trkpt lat="59.8927489" lon="17.6232227">
        <ele>15.0377</ele>
        <time>2012-08-02T19:05:09Z</time>
      </trkpt>
      <trkpt lat="59.892879" lon="17.6232968">
        <ele>22.2476</ele>
        <time>2012-08-02T19:05:14Z</time>
      </trkpt>
      <trkpt lat="59.8929899" lon="17.6234176">
        <ele>27.0543</ele>
        <time>2012-08-02T19:05:20Z</time>
      </trkpt>
      <trkpt lat="59.893095" lon="17.6235212">
        <ele>27.5349</ele>
        <time>2012-08-02T19:05:25Z</time>
      </trkpt>
      <trkpt lat="59.8931935" lon="17.6236387">
        <ele>27.0543</ele>
        <time>2012-08-02T19:05:30Z</time>
      </trkpt>
      <trkpt lat="59.8933199" lon="17.6237944">
        <ele>26.5736</ele>
        <time>2012-08-02T19:05:37Z</time>
      </trkpt>
      <trkpt lat="59.8934287" lon="17.623914">
        <ele>28.0155</ele>
        <time>2012-08-02T19:05:42Z</time>
      </trkpt>
      <trkpt lat="59.8935265" lon="17.6240456">
        <ele>27.0543</ele>
        <time>2012-08-02T19:05:47Z</time>
      </trkpt>
      <trkpt lat="59.8936355" lon="17.6242267">
        <ele>26.0929</ele>
        <time>2012-08-02T19:05:53Z</time>
      </trkpt>
      <trkpt lat="59.8937297" lon="17.6243276">
        <ele>25.6123</ele>
        <time>2012-08-02T19:05:58Z</time>
      </trkpt>
      <trkpt lat="59.8938685" lon="17.6244311">
        <ele>26.0929</ele>
        <time>2012-08-02T19:06:05Z</time>
      </trkpt>
      <trkpt lat="59.8939668" lon="17.6244865">
        <ele>25.1317</ele>
        <time>2012-08-02T19:06:10Z</time>
      </trkpt>
      <trkpt lat="59.8940912" lon="17.6245395">
        <ele>23.6896</ele>
        <time>2012-08-02T19:06:16Z</time>
      </trkpt>
      <trkpt lat="59.8941555" lon="17.6245664">
        <ele>23.209</ele>
        <time>2012-08-02T19:06:19Z</time>
      </trkpt>
      <trkpt lat="59.8942477" lon="17.624568">
        <ele>19.8444</ele>
        <time>2012-08-02T19:06:24Z</time>
      </trkpt>
      <trkpt lat="59.8943549" lon="17.6246249">
        <ele>18.8831</ele>
        <time>2012-08-02T19:06:29Z</time>
      </trkpt>
      <trkpt lat="59.8944881" lon="17.6247294">
        <ele>19.3638</ele>
        <time>2012-08-02T19:06:35Z</time>
      </trkpt>
      <trkpt lat="59.8946025" lon="17.624883">
        <ele>20.325</ele>
        <time>2012-08-02T19:06:40Z</time>
      </trkpt>
      <trkpt lat="59.8946818" lon="17.6249382">
        <ele>19.3638</ele>
        <time>2012-08-02T19:06:44Z</time>
      </trkpt>
      <trkpt lat="59.8947973" lon="17.6250568">
        <ele>16.9604</ele>
        <time>2012-08-02T19:06:51Z</time>
      </trkpt>
      <trkpt lat="59.8948749" lon="17.6251517">
        <ele>14.0764</ele>
        <time>2012-08-02T19:06:57Z</time>
      </trkpt>
      <trkpt lat="59.8949641" lon="17.6252344">
        <ele>15.5184</ele>
        <time>2012-08-02T19:07:01Z</time>
      </trkpt>
      <trkpt lat="59.8951029" lon="17.6252807">
        <ele>24.651</ele>
        <time>2012-08-02T19:07:05Z</time>
      </trkpt>
      <trkpt lat="59.895268" lon="17.6253041">
        <ele>29.9381</ele>
        <time>2012-08-02T19:07:12Z</time>
      </trkpt>
      <trkpt lat="59.8953534" lon="17.6253092">
        <ele>31.8607</ele>
        <time>2012-08-02T19:07:16Z</time>
      </trkpt>
      <trkpt lat="59.8954437" lon="17.6253285">
        <ele>28.0155</ele>
        <time>2012-08-02T19:07:21Z</time>
      </trkpt>
      <trkpt lat="59.8954914" lon="17.6253384">
        <ele>23.209</ele>
        <time>2012-08-02T19:07:25Z</time>
      </trkpt>
      <trkpt lat="59.8955691" lon="17.6253564">
        <ele>15.999</ele>
        <time>2012-08-02T19:07:31Z</time>
      </trkpt>
      <trkpt lat="59.8956478" lon="17.6254014">
        <ele>14.557</ele>
        <time>2012-08-02T19:07:36Z</time>
      </trkpt>
      <trkpt lat="59.895696" lon="17.6254409">
        <ele>14.0764</ele>
        <time>2012-08-02T19:07:39Z</time>
      </trkpt>
      <trkpt lat="59.8957991" lon="17.6255232">
        <ele>15.5184</ele>
        <time>2012-08-02T19:07:45Z</time>
      </trkpt>
      <trkpt lat="59.8958408" lon="17.6255559">
        <ele>15.5184</ele>
        <time>2012-08-02T19:07:48Z</time>
      </trkpt>
      <trkpt lat="59.8959491" lon="17.6255511">
        <ele>15.0377</ele>
        <time>2012-08-02T19:07:54Z</time>
      </trkpt>
      <trkpt lat="59.8960326" lon="17.6255487">
        <ele>14.0764</ele>
        <time>2012-08-02T19:07:59Z</time>
      </trkpt>
      <trkpt lat="59.8961346" lon="17.6256206">
        <ele>14.0764</ele>
        <time>2012-08-02T19:08:05Z</time>
      </trkpt>
      <trkpt lat="59.8962037" lon="17.6256454">
        <ele>17.9218</ele>
        <time>2012-08-02T19:08:08Z</time>
      </trkpt>
      <trkpt lat="59.8963527" lon="17.6257874">
        <ele>22.2476</ele>
        <time>2012-08-02T19:08:15Z</time>
      </trkpt>
      <trkpt lat="59.896508" lon="17.6258678">
        <ele>26.5736</ele>
        <time>2012-08-02T19:08:21Z</time>
      </trkpt>
      <trkpt lat="59.8966456" lon="17.6258821">
        <ele>29.4575</ele>
        <time>2012-08-02T19:08:27Z</time>
      </trkpt>
      <trkpt lat="59.8967262" lon="17.6258749">
        <ele>28.4962</ele>
        <time>2012-08-02T19:08:31Z</time>
      </trkpt>
      <trkpt lat="59.8968782" lon="17.6260179">
        <ele>27.5349</ele>
        <time>2012-08-02T19:08:37Z</time>
      </trkpt>
      <trkpt lat="59.8969714" lon="17.6261267">
        <ele>26.5736</ele>
        <time>2012-08-02T19:08:41Z</time>
      </trkpt>
      <trkpt lat="59.8970996" lon="17.6262158">
        <ele>26.0929</ele>
        <time>2012-08-02T19:08:46Z</time>
      </trkpt>
      <trkpt lat="59.897231" lon="17.6263637">
        <ele>26.0929</ele>
        <time>2012-08-02T19:08:52Z</time>
      </trkpt>
      <trkpt lat="59.8973457" lon="17.6265001">
        <ele>26.5736</ele>
        <time>2012-08-02T19:08:58Z</time>
      </trkpt>
      <trkpt lat="59.8974469" lon="17.6266523">
        <ele>25.1317</ele>
        <time>2012-08-02T19:09:04Z</time>
      </trkpt>
      <trkpt lat="59.8974734" lon="17.626704">
        <ele>24.1703</ele>
        <time>2012-08-02T19:09:06Z</time>
      </trkpt>
      <trkpt lat="59.8975596" lon="17.6268862">
        <ele>24.651</ele>
        <time>2012-08-02T19:09:12Z</time>
      </trkpt>
      <trkpt lat="59.8975882" lon="17.6269363">
        <ele>25.1317</ele>
        <time>2012-08-02T19:09:14Z</time>
      </trkpt>
      <trkpt lat="59.8976596" lon="17.6270855">
        <ele>27.0543</ele>
        <time>2012-08-02T19:09:19Z</time>
      </trkpt>
      <trkpt lat="59.8977689" lon="17.627342">
        <ele>29.4575</ele>
        <time>2012-08-02T19:09:27Z</time>
      </trkpt>
      <trkpt lat="59.8978354" lon="17.6275271">
        <ele>31.3801</ele>
        <time>2012-08-02T19:09:32Z</time>
      </trkpt>
      <trkpt lat="59.8979053" lon="17.6277103">
        <ele>31.8607</ele>
        <time>2012-08-02T19:09:38Z</time>
      </trkpt>
      <trkpt lat="59.8979887" lon="17.6279438">
        <ele>33.3029</ele>
        <time>2012-08-02T19:09:45Z</time>
      </trkpt>
      <trkpt lat="59.898023" lon="17.6281318">
        <ele>32.8223</ele>
        <time>2012-08-02T19:09:50Z</time>
      </trkpt>
      <trkpt lat="59.8980704" lon="17.6283734">
        <ele>32.3416</ele>
        <time>2012-08-02T19:09:56Z</time>
      </trkpt>
      <trkpt lat="59.8981155" lon="17.628602">
        <ele>32.8223</ele>
        <time>2012-08-02T19:10:02Z</time>
      </trkpt>
      <trkpt lat="59.8981706" lon="17.628852">
        <ele>35.2255</ele>
        <time>2012-08-02T19:10:08Z</time>
      </trkpt>
      <trkpt lat="59.8982289" lon="17.6291437">
        <ele>34.7449</ele>
        <time>2012-08-02T19:10:15Z</time>
      </trkpt>
      <trkpt lat="59.8982682" lon="17.6293348">
        <ele>34.7449</ele>
        <time>2012-08-02T19:10:20Z</time>
      </trkpt>
      <trkpt lat="59.898356" lon="17.6295769">
        <ele>35.2255</ele>
        <time>2012-08-02T19:10:27Z</time>
      </trkpt>
      <trkpt lat="59.8984123" lon="17.62975">
        <ele>35.2255</ele>
        <time>2012-08-02T19:10:32Z</time>
      </trkpt>
      <trkpt lat="59.8984901" lon="17.6299563">
        <ele>36.6675</ele>
        <time>2012-08-02T19:10:38Z</time>
      </trkpt>
      <trkpt lat="59.8985875" lon="17.630223">
        <ele>36.6675</ele>
        <time>2012-08-02T19:10:46Z</time>
      </trkpt>
      <trkpt lat="59.8986678" lon="17.6304268">
        <ele>36.6675</ele>
        <time>2012-08-02T19:10:52Z</time>
      </trkpt>
      <trkpt lat="59.8987388" lon="17.6306591">
        <ele>36.1868</ele>
        <time>2012-08-02T19:10:58Z</time>
      </trkpt>
      <trkpt lat="59.898814" lon="17.63087">
        <ele>37.1481</ele>
        <time>2012-08-02T19:11:04Z</time>
      </trkpt>
      <trkpt lat="59.8989028" lon="17.6310768">
        <ele>37.6287</ele>
        <time>2012-08-02T19:11:10Z</time>
      </trkpt>
      <trkpt lat="59.8989712" lon="17.631234">
        <ele>37.1481</ele>
        <time>2012-08-02T19:11:15Z</time>
      </trkpt>
      <trkpt lat="59.8990563" lon="17.6314423">
        <ele>37.1481</ele>
        <time>2012-08-02T19:11:21Z</time>
      </trkpt>
      <trkpt lat="59.8991324" lon="17.6316324">
        <ele>35.2255</ele>
        <time>2012-08-02T19:11:27Z</time>
      </trkpt>
      <trkpt lat="59.8991426" lon="17.6316747">
        <ele>35.2255</ele>
        <time>2012-08-02T19:11:28Z</time>
      </trkpt>
      <trkpt lat="59.8990699" lon="17.631931">
        <ele>32.3416</ele>
        <time>2012-08-02T19:11:35Z</time>
      </trkpt>
      <trkpt lat="59.8989981" lon="17.6320666">
        <ele>31.3801</ele>
        <time>2012-08-02T19:11:39Z</time>
      </trkpt>
      <trkpt lat="59.8989365" lon="17.6321988">
        <ele>30.8995</ele>
        <time>2012-08-02T19:11:43Z</time>
      </trkpt>
    </trkseg>
  </trk>
</gpx>